createdAt,value
2022-11-19T00:01:34.970Z,43.20
2022-11-19T00:04:07.211Z,44.90
2022-11-19T00:06:35.547Z,43.58
2022-11-19T00:09:03.642Z,40.10
2022-11-19T00:11:31.819Z,39.28
2022-11-19T00:13:59.976Z,38.25
2022-11-19T00:16:28.127Z,37.53
2022-11-19T00:18:56.246Z,41.92
2022-11-19T00:21:24.757Z,38.88
2022-11-19T00:23:56.422Z,38.80
2022-11-19T00:26:24.969Z,40.70
2022-11-19T00:28:53.462Z,54.67
2022-11-19T00:31:21.636Z,64.18
2022-11-19T00:33:50.165Z,52.83
2022-11-19T00:36:18.903Z,52.15
2022-11-19T00:38:47.266Z,43.42
2022-11-19T00:41:15.591Z,42.50
2022-11-19T00:43:43.679Z,31.20
2022-11-19T00:46:12.230Z,32.10
2022-11-19T00:48:40.781Z,38.55
2022-11-19T00:51:10.289Z,53.10
2022-11-19T00:53:39.027Z,35.55
2022-11-19T00:56:10.349Z,47.92
2022-11-19T00:58:38.763Z,38.07
2022-11-19T01:01:08.293Z,27.98
2022-11-19T01:03:37.087Z,22.80
2022-11-19T01:06:05.984Z,20.80
2022-11-19T01:08:34.382Z,17.45
2022-11-19T01:11:08.145Z,17.98
2022-11-19T01:13:37.294Z,17.90
2022-11-19T01:16:17.753Z,22.92
2022-11-19T01:18:48.789Z,17.77
2022-11-19T01:21:18.125Z,19.35
2022-11-19T01:23:46.655Z,16.10
2022-11-19T01:26:16.471Z,16.23
2022-11-19T01:28:45.481Z,18.27
2022-11-19T01:31:23.318Z,19.15
2022-11-19T01:33:52.169Z,15.60
2022-11-19T01:36:28.855Z,14.90
2022-11-19T01:38:58.343Z,13.73
2022-11-19T01:41:31.948Z,15.38
2022-11-19T01:44:03.214Z,15.02
2022-11-19T01:46:34.056Z,14.67
2022-11-19T01:49:04.797Z,15.25
2022-11-19T01:51:41.698Z,15.30
2022-11-19T01:54:23.734Z,17.77
2022-11-19T01:56:52.876Z,18.15
2022-11-19T01:59:22.001Z,16.58
2022-11-19T02:01:50.518Z,15.38
2022-11-19T02:04:21.327Z,14.98
2022-11-19T02:06:49.735Z,15.40
2022-11-19T02:09:18.328Z,15.23
2022-11-19T02:11:55.730Z,16.77
2022-11-19T02:14:29.733Z,15.95
2022-11-19T02:17:25.906Z,14.85
2022-11-19T02:20:31.311Z,15.63
2022-11-19T02:23:20.934Z,16.80
2022-11-19T02:26:24.940Z,16.60
2022-11-19T02:29:21.365Z,17.33
2022-11-19T02:31:58.001Z,18.45
2022-11-19T02:34:31.107Z,17.73
2022-11-19T02:37:04.795Z,15.82
2022-11-19T02:39:49.787Z,16.52
2022-11-19T02:42:23.316Z,16.33
2022-11-19T02:45:06.426Z,16.58
2022-11-19T02:48:01.717Z,18.67
2022-11-19T02:50:48.991Z,19.10
2022-11-19T02:53:17.404Z,19.00
2022-11-19T02:55:45.743Z,19.98
2022-11-19T02:58:22.116Z,21.40
2022-11-19T03:00:51.144Z,20.60
2022-11-19T03:03:21.446Z,19.10
2022-11-19T03:05:54.978Z,22.92
2022-11-19T03:08:23.732Z,21.02
2022-11-19T03:10:54.954Z,24.80
2022-11-19T03:13:28.631Z,30.30
2022-11-19T03:15:59.301Z,30.08
2022-11-19T03:18:36.007Z,27.77
2022-11-19T03:21:04.219Z,25.10
2022-11-19T03:23:43.385Z,21.00
2022-11-19T03:26:20.234Z,18.50
2022-11-19T03:28:49.769Z,16.98
2022-11-19T03:31:19.783Z,15.00
2022-11-19T03:33:52.872Z,13.43
2022-11-19T03:36:35.770Z,12.38
2022-11-19T03:39:09.235Z,11.82
2022-11-19T03:41:39.925Z,13.40
2022-11-19T03:44:20.545Z,12.48
2022-11-19T03:46:54.565Z,12.68
2022-11-19T03:49:32.452Z,11.00
2022-11-19T03:52:07.788Z,11.45
2022-11-19T03:54:35.942Z,11.98
2022-11-19T03:57:07.143Z,12.43
2022-11-19T03:59:35.478Z,13.13
2022-11-19T04:02:07.584Z,10.52
2022-11-19T04:07:24.100Z,11.38
2022-11-19T04:09:52.217Z,11.38
2022-11-19T04:12:22.834Z,13.13
2022-11-19T04:14:52.141Z,11.93
2022-11-19T04:17:20.735Z,12.68
2022-11-19T04:19:49.117Z,13.00
2022-11-19T04:22:17.316Z,13.18
2022-11-19T04:24:45.399Z,13.25
2022-11-19T04:27:13.466Z,12.48
2022-11-19T04:29:41.658Z,13.43
2022-11-19T04:32:11.054Z,13.77
2022-11-19T04:34:39.243Z,12.55
2022-11-19T04:37:07.381Z,13.63
2022-11-19T04:39:35.487Z,12.88
2022-11-19T04:42:03.719Z,13.30
2022-11-19T04:44:31.952Z,12.95
2022-11-19T04:47:00.050Z,13.05
2022-11-19T04:49:28.301Z,12.05
2022-11-19T04:51:56.273Z,13.60
2022-11-19T04:54:24.484Z,13.23
2022-11-19T04:56:52.532Z,13.60
2022-11-19T04:59:20.889Z,11.70
2022-11-19T05:01:49.144Z,13.00
2022-11-19T05:04:17.265Z,12.88
2022-11-19T05:06:45.485Z,14.07
2022-11-19T05:09:13.681Z,13.35
2022-11-19T05:11:41.796Z,11.95
2022-11-19T05:14:10.195Z,13.07
2022-11-19T05:16:38.392Z,11.82
2022-11-19T05:19:06.668Z,12.50
2022-11-19T05:21:34.862Z,12.65
2022-11-19T05:24:03.117Z,12.63
2022-11-19T05:26:31.348Z,13.00
2022-11-19T05:28:59.433Z,12.20
2022-11-19T05:31:27.693Z,12.43
2022-11-19T05:33:55.767Z,11.90
2022-11-19T05:36:24.100Z,13.50
2022-11-19T05:38:52.142Z,12.65
2022-11-19T05:41:20.207Z,13.05
2022-11-19T05:43:48.558Z,13.07
2022-11-19T05:46:16.681Z,13.45
2022-11-19T05:48:45.000Z,11.82
2022-11-19T05:51:16.832Z,12.88
2022-11-19T05:53:45.250Z,13.48
2022-11-19T05:56:13.348Z,12.05
2022-11-19T05:58:41.712Z,13.20
2022-11-19T06:01:09.975Z,13.48
2022-11-19T06:03:38.067Z,14.32
2022-11-19T06:06:06.510Z,14.95
2022-11-19T06:08:34.801Z,14.18
2022-11-19T06:11:03.808Z,13.82
2022-11-19T06:13:31.939Z,13.43
2022-11-19T06:16:00.157Z,13.90
2022-11-19T06:18:28.423Z,12.95
2022-11-19T06:20:56.618Z,11.90
2022-11-19T06:23:24.801Z,13.13
2022-11-19T06:25:55.086Z,13.07
2022-11-19T06:28:23.340Z,12.23
2022-11-19T06:30:51.450Z,13.32
2022-11-19T06:33:19.725Z,13.35
2022-11-19T06:35:50.038Z,12.98
2022-11-19T06:38:18.646Z,13.30
2022-11-19T06:40:47.191Z,15.15
2022-11-19T06:43:15.465Z,13.80
2022-11-19T06:45:43.693Z,15.23
2022-11-19T06:48:11.920Z,15.57
2022-11-19T06:50:40.145Z,15.50
2022-11-19T06:53:08.350Z,14.73
2022-11-19T06:55:36.728Z,15.95
2022-11-19T06:58:05.679Z,14.95
2022-11-19T07:00:35.068Z,16.35
2022-11-19T07:03:03.843Z,15.75
2022-11-19T07:05:32.013Z,16.52
2022-11-19T07:08:03.044Z,16.02
2022-11-19T07:10:32.079Z,15.27
2022-11-19T07:13:00.647Z,15.15
2022-11-19T07:15:28.944Z,15.50
2022-11-19T07:17:57.287Z,13.43
2022-11-19T07:20:25.591Z,17.30
2022-11-19T07:22:58.775Z,14.07
2022-11-19T07:25:28.476Z,16.70
2022-11-19T07:27:56.529Z,15.18
2022-11-19T07:30:24.691Z,16.02
2022-11-19T07:32:54.560Z,15.57
2022-11-19T07:35:22.792Z,16.55
2022-11-19T07:37:50.975Z,16.25
2022-11-19T07:40:19.329Z,17.50
2022-11-19T07:42:47.381Z,17.40
2022-11-19T07:45:17.161Z,18.80
2022-11-19T07:47:45.339Z,17.38
2022-11-19T07:50:13.875Z,18.20
2022-11-19T07:52:42.125Z,17.90
2022-11-19T07:55:10.799Z,18.70
2022-11-19T07:57:39.235Z,19.63
2022-11-19T08:00:08.357Z,18.83
2022-11-19T08:02:42.929Z,19.40
2022-11-19T08:05:11.676Z,17.08
2022-11-19T08:07:40.061Z,17.85
2022-11-19T08:10:09.577Z,18.25
2022-11-19T08:12:37.804Z,17.20
2022-11-19T08:15:06.547Z,17.55
2022-11-19T08:17:34.898Z,19.35
2022-11-19T08:20:03.066Z,16.35
2022-11-19T08:22:31.268Z,17.67
2022-11-19T08:24:59.614Z,19.88
2022-11-19T08:27:28.083Z,15.27
2022-11-19T08:29:56.444Z,20.50
2022-11-19T08:32:24.677Z,21.33
2022-11-19T08:34:53.100Z,18.67
2022-11-19T08:37:21.407Z,18.08
2022-11-19T08:39:49.604Z,17.35
2022-11-19T08:42:17.841Z,16.83
2022-11-19T08:44:45.832Z,17.65
2022-11-19T08:47:14.088Z,19.33
2022-11-19T08:49:42.386Z,23.70
2022-11-19T08:52:10.480Z,21.20
2022-11-19T08:54:38.835Z,15.98
2022-11-19T08:57:07.088Z,14.27
2022-11-19T08:59:35.278Z,13.07
2022-11-19T09:02:03.508Z,13.52
2022-11-19T09:04:31.852Z,14.52
2022-11-19T09:06:59.872Z,13.75
2022-11-19T09:09:28.159Z,13.98
2022-11-19T09:11:56.466Z,13.63
2022-11-19T09:14:24.623Z,13.45
2022-11-19T09:16:52.786Z,13.02
2022-11-19T09:19:21.035Z,13.40
2022-11-19T09:21:49.278Z,13.13
2022-11-19T09:24:18.095Z,13.57
2022-11-19T09:26:51.709Z,13.35
2022-11-19T09:29:21.160Z,12.30
2022-11-19T09:31:49.449Z,11.73
2022-11-19T09:34:17.851Z,9.45
2022-11-19T09:36:46.351Z,8.73
2022-11-19T09:39:14.754Z,10.10
2022-11-19T09:41:58.193Z,9.82
2022-11-19T09:45:05.021Z,9.38
2022-11-19T09:48:20.584Z,8.07
2022-11-19T09:50:57.524Z,8.80
2022-11-19T09:53:26.346Z,8.43
2022-11-19T09:55:55.036Z,9.45
2022-11-19T09:58:27.223Z,9.52
2022-11-19T10:00:56.069Z,9.90
2022-11-19T10:03:32.899Z,11.98
2022-11-19T10:06:12.942Z,10.95
2022-11-19T10:09:10.393Z,11.13
2022-11-19T10:11:51.947Z,8.43
2022-11-19T10:14:29.327Z,8.32
2022-11-19T10:17:17.788Z,7.93
2022-11-19T10:20:15.269Z,8.05
2022-11-19T10:23:00.690Z,8.27
2022-11-19T10:25:43.570Z,7.30
2022-11-19T10:28:26.169Z,5.80
2022-11-19T10:31:16.191Z,6.93
2022-11-19T10:34:41.246Z,7.57
2022-11-19T10:37:15.612Z,5.88
2022-11-19T10:39:52.664Z,6.70
2022-11-19T10:42:35.134Z,6.10
2022-11-19T10:45:10.475Z,12.95
2022-11-19T10:47:50.221Z,5.88
2022-11-19T10:50:21.572Z,5.50
2022-11-19T10:52:55.768Z,5.82
2022-11-19T10:55:41.416Z,6.55
2022-11-19T10:58:19.161Z,6.38
2022-11-19T11:00:48.570Z,6.10
2022-11-19T11:03:47.790Z,6.40
2022-11-19T11:06:16.099Z,6.60
2022-11-19T11:08:52.745Z,7.30
2022-11-19T11:11:33.054Z,6.13
2022-11-19T11:14:01.499Z,6.93
2022-11-19T11:16:41.350Z,7.15
2022-11-19T11:19:21.960Z,6.63
2022-11-19T11:21:55.924Z,7.40
2022-11-19T11:24:36.809Z,6.63
2022-11-19T11:27:24.654Z,6.43
2022-11-19T11:30:14.653Z,5.35
2022-11-19T11:32:43.333Z,5.30
2022-11-19T11:35:44.740Z,6.25
2022-11-19T11:38:14.234Z,6.17
2022-11-19T11:41:05.352Z,7.90
2022-11-19T11:43:51.343Z,9.00
2022-11-19T11:46:19.524Z,8.65
2022-11-19T11:48:49.713Z,10.38
2022-11-19T11:51:37.811Z,9.10
2022-11-19T11:54:21.679Z,10.05
2022-11-19T11:56:49.915Z,8.93
2022-11-19T11:59:32.717Z,8.98
2022-11-19T12:02:08.724Z,10.80
2022-11-19T12:04:37.051Z,9.50
2022-11-19T12:07:29.847Z,11.75
2022-11-19T12:10:43.646Z,11.55
2022-11-19T12:13:38.990Z,10.85
2022-11-19T12:16:27.948Z,10.57
2022-11-19T12:19:17.796Z,9.90
2022-11-19T12:22:10.747Z,10.35
2022-11-19T12:25:15.805Z,11.10
2022-11-19T12:28:04.405Z,10.70
2022-11-19T12:30:47.994Z,9.65
2022-11-19T12:33:46.709Z,9.27
2022-11-19T12:36:45.535Z,8.82
2022-11-19T12:39:31.361Z,11.48
2022-11-19T12:42:27.240Z,11.38
2022-11-19T12:44:58.299Z,13.80
2022-11-19T12:47:48.079Z,12.50
2022-11-19T12:50:29.886Z,11.32
2022-11-19T12:53:19.396Z,12.15
2022-11-19T12:56:10.923Z,13.45
2022-11-19T12:59:00.559Z,11.13
2022-11-19T13:01:36.452Z,9.20
2022-11-19T13:04:33.992Z,10.10
2022-11-19T13:07:05.234Z,10.95
2022-11-19T13:09:45.230Z,9.30
2022-11-19T13:12:23.420Z,8.75
2022-11-19T13:15:09.654Z,11.02
2022-11-19T13:17:44.438Z,15.32
2022-11-19T13:20:28.092Z,17.30
2022-11-19T13:23:02.398Z,16.40
2022-11-19T13:25:42.111Z,16.73
2022-11-19T13:28:27.892Z,16.83
2022-11-19T13:31:03.283Z,13.52
2022-11-19T13:34:00.635Z,12.30
2022-11-19T13:36:42.871Z,12.32
2022-11-19T13:39:23.442Z,11.75
2022-11-19T13:41:54.384Z,10.30
2022-11-19T13:44:22.763Z,11.18
2022-11-19T13:46:59.682Z,12.15
2022-11-19T13:49:33.853Z,10.98
2022-11-19T13:52:08.909Z,11.13
2022-11-19T13:54:40.147Z,11.35
2022-11-19T13:57:23.151Z,11.32
2022-11-19T13:59:56.698Z,11.38
2022-11-19T14:02:51.852Z,11.50
2022-11-19T14:05:41.420Z,11.23
2022-11-19T14:08:35.950Z,12.75
2022-11-19T14:11:34.511Z,11.25
2022-11-19T14:14:10.483Z,11.60
2022-11-19T14:16:49.793Z,13.35
2022-11-19T14:19:20.001Z,11.10
2022-11-19T14:21:53.830Z,10.45
2022-11-19T14:24:25.003Z,14.02
2022-11-19T14:26:53.229Z,14.60
2022-11-19T14:29:24.196Z,16.92
2022-11-19T14:32:01.282Z,19.92
2022-11-19T14:34:39.509Z,24.67
2022-11-19T14:37:26.493Z,31.08
2022-11-19T14:40:19.653Z,22.30
2022-11-19T14:43:03.012Z,18.00
2022-11-19T14:45:31.261Z,16.35
2022-11-19T14:48:05.091Z,17.17
2022-11-19T14:50:33.909Z,12.90
2022-11-19T14:53:02.726Z,12.23
2022-11-19T14:55:34.574Z,12.32
2022-11-19T14:58:06.537Z,12.20
2022-11-19T15:00:41.080Z,11.27
2022-11-19T15:03:35.058Z,12.85
2022-11-19T15:06:08.315Z,14.57
2022-11-19T15:08:57.043Z,12.35
2022-11-19T15:11:45.242Z,12.95
2022-11-19T15:14:36.872Z,12.80
2022-11-19T15:17:08.052Z,13.57
2022-11-19T15:19:39.411Z,13.88
2022-11-19T15:22:25.734Z,14.45
2022-11-19T15:25:19.780Z,19.80
2022-11-19T15:28:09.150Z,23.40
2022-11-19T15:30:43.539Z,25.83
2022-11-19T15:33:29.467Z,28.50
2022-11-19T15:36:08.386Z,24.17
2022-11-19T15:39:00.639Z,20.98
2022-11-19T15:41:33.045Z,17.48
2022-11-19T15:44:06.542Z,15.90
2022-11-19T15:46:43.988Z,12.23
2022-11-19T15:49:19.815Z,13.52
2022-11-19T15:52:03.190Z,12.98
2022-11-19T15:54:34.188Z,13.75
2022-11-19T15:57:18.544Z,15.85
2022-11-19T15:59:52.178Z,16.73
2022-11-19T16:02:27.789Z,16.27
2022-11-19T16:04:56.199Z,17.42
2022-11-19T16:07:28.070Z,18.02
2022-11-19T16:12:27.792Z,16.80
2022-11-19T16:14:56.524Z,18.93
2022-11-19T16:17:26.632Z,21.02
2022-11-19T16:20:07.252Z,19.65
2022-11-19T16:22:42.867Z,20.08
2022-11-19T16:25:30.688Z,21.40
2022-11-19T16:28:01.959Z,22.27
2022-11-19T16:30:46.529Z,24.83
2022-11-19T16:33:22.418Z,25.67
2022-11-19T16:35:53.377Z,23.45
2022-11-19T16:38:28.362Z,23.90
2022-11-19T16:40:58.075Z,24.58
2022-11-19T16:43:27.520Z,26.85
2022-11-19T16:45:57.666Z,22.30
2022-11-19T16:48:50.284Z,22.90
2022-11-19T16:51:36.690Z,25.90
2022-11-19T16:54:07.946Z,25.55
2022-11-19T16:56:43.891Z,27.23
2022-11-19T16:59:21.993Z,26.85
2022-11-19T17:01:56.933Z,28.52
2022-11-19T17:04:30.388Z,33.92
2022-11-19T17:07:00.194Z,31.52
2022-11-19T17:09:41.835Z,29.10
2022-11-19T17:12:28.123Z,29.23
2022-11-19T17:15:00.960Z,36.58
2022-11-19T17:17:41.315Z,47.13
2022-11-19T17:20:28.368Z,45.85
2022-11-19T17:22:59.116Z,42.05
2022-11-19T17:25:27.752Z,43.75
2022-11-19T17:27:58.329Z,36.05
2022-11-19T17:30:31.676Z,35.25
2022-11-19T17:33:03.243Z,27.58
2022-11-19T17:35:39.251Z,24.98
2022-11-19T17:38:11.295Z,27.30
2022-11-19T17:43:12.441Z,28.20
2022-11-19T17:45:40.799Z,25.27
2022-11-19T17:48:25.189Z,29.15
2022-11-19T17:50:53.524Z,29.05
2022-11-19T17:53:22.413Z,28.05
2022-11-19T17:55:52.804Z,33.50
2022-11-19T17:58:21.117Z,36.78
2022-11-19T18:00:49.746Z,39.65
2022-11-19T18:03:18.161Z,37.15
2022-11-19T18:05:50.286Z,42.58
2022-11-19T18:10:48.188Z,98.40
2022-11-19T18:13:36.059Z,119.38
2022-11-19T18:16:20.590Z,124.07
2022-11-19T18:18:49.589Z,106.95
2022-11-19T18:21:20.383Z,81.88
2022-11-19T18:23:51.103Z,66.72
2022-11-19T18:26:22.031Z,62.90
2022-11-19T18:28:50.486Z,62.58
2022-11-19T18:31:20.008Z,57.10
2022-11-19T18:33:48.726Z,50.35
2022-11-19T18:36:18.468Z,47.80
2022-11-19T18:38:46.845Z,51.30
2022-11-19T18:41:16.269Z,49.35
2022-11-19T18:43:44.594Z,50.55
2022-11-19T18:46:12.798Z,49.85
2022-11-19T18:48:40.959Z,50.03
2022-11-19T18:51:14.130Z,59.03
2022-11-19T18:53:42.499Z,66.28
2022-11-19T18:56:20.168Z,72.85
2022-11-19T18:58:48.468Z,81.53
2022-11-19T19:01:16.753Z,88.63
2022-11-19T19:03:45.337Z,101.43
2022-11-19T19:06:13.684Z,116.20
2022-11-19T19:08:42.002Z,111.20
2022-11-19T19:11:10.238Z,103.65
2022-11-19T19:13:38.263Z,93.32
2022-11-19T19:16:06.843Z,112.03
2022-11-19T19:18:35.547Z,144.80
2022-11-19T19:21:03.926Z,141.23
2022-11-19T19:23:33.005Z,87.60
2022-11-19T19:26:01.350Z,74.88
2022-11-19T19:28:29.456Z,74.60
2022-11-19T19:31:00.753Z,67.40
2022-11-19T19:33:29.240Z,75.80
2022-11-19T19:35:57.743Z,70.70
2022-11-19T19:38:26.037Z,66.07
2022-11-19T19:40:54.495Z,62.25
2022-11-19T19:43:22.785Z,54.92
2022-11-19T19:45:50.958Z,53.80
2022-11-19T19:48:19.049Z,51.83
2022-11-19T19:50:53.247Z,50.45
2022-11-19T19:53:21.638Z,45.55
2022-11-19T19:55:49.715Z,45.80
2022-11-19T19:58:18.017Z,71.50
2022-11-19T20:00:46.228Z,134.88
2022-11-19T20:03:14.368Z,177.27
2022-11-19T20:05:49.506Z,254.75
2022-11-19T20:08:17.731Z,207.63
2022-11-19T20:10:45.923Z,123.30
2022-11-19T20:13:14.145Z,92.68
2022-11-19T20:15:42.919Z,70.45
2022-11-19T20:18:11.062Z,67.15
2022-11-19T20:20:39.427Z,70.07
2022-11-19T20:23:07.820Z,76.20
2022-11-19T20:25:36.055Z,77.57
2022-11-19T20:28:04.367Z,83.43
2022-11-19T20:30:32.613Z,82.82
2022-11-19T20:33:00.865Z,70.82
2022-11-19T20:35:29.144Z,66.72
2022-11-19T20:38:02.161Z,67.10
2022-11-19T20:40:31.543Z,70.43
2022-11-19T20:42:59.863Z,68.35
2022-11-19T20:45:27.941Z,66.03
2022-11-19T20:47:56.297Z,71.10
2022-11-19T20:50:24.505Z,74.07
2022-11-19T20:52:52.824Z,77.53
2022-11-19T20:55:21.027Z,84.43
2022-11-19T20:57:49.088Z,98.05
2022-11-19T21:00:18.037Z,98.18
2022-11-19T21:02:46.307Z,100.85
2022-11-19T21:05:14.654Z,98.90
2022-11-19T21:07:42.988Z,95.03
2022-11-19T21:10:11.304Z,95.28
2022-11-19T21:12:39.670Z,88.95
2022-11-19T21:15:08.227Z,91.15
2022-11-19T21:17:36.293Z,101.82
2022-11-19T21:20:04.829Z,101.90
2022-11-19T21:22:32.960Z,111.47
2022-11-19T21:25:01.375Z,118.60
2022-11-19T21:27:29.601Z,121.15
2022-11-19T21:29:57.901Z,117.13
2022-11-19T21:32:26.215Z,105.93
2022-11-19T21:34:54.410Z,94.60
2022-11-19T21:37:22.609Z,92.32
2022-11-19T21:39:50.974Z,88.88
2022-11-19T21:42:19.094Z,84.88
2022-11-19T21:44:47.361Z,81.80
2022-11-19T21:47:15.440Z,86.30
2022-11-19T21:49:43.746Z,79.65
2022-11-19T21:52:11.965Z,80.32
2022-11-19T21:54:40.134Z,74.90
2022-11-19T21:57:08.368Z,68.80
2022-11-19T21:59:36.780Z,60.35
2022-11-19T22:02:05.131Z,58.70
2022-11-19T22:04:33.387Z,60.20
2022-11-19T22:07:01.729Z,54.08
2022-11-19T22:09:29.827Z,51.10
2022-11-19T22:11:58.369Z,53.50
2022-11-19T22:14:26.610Z,51.65
2022-11-19T22:16:54.801Z,50.80
2022-11-19T22:19:23.340Z,46.85
2022-11-19T22:21:51.506Z,46.08
2022-11-19T22:24:19.941Z,42.42
2022-11-19T22:26:48.166Z,42.08
2022-11-19T22:29:16.460Z,40.10
2022-11-19T22:31:44.858Z,39.55
2022-11-19T22:34:13.238Z,37.15
2022-11-19T22:36:41.593Z,35.78
2022-11-19T22:39:10.144Z,35.58
2022-11-19T22:41:38.187Z,33.65
2022-11-19T22:44:06.776Z,32.45
2022-11-19T22:46:35.009Z,31.88
2022-11-19T22:49:03.274Z,31.50
2022-11-19T22:51:31.577Z,31.02
2022-11-19T22:53:59.768Z,29.85
2022-11-19T22:56:30.254Z,29.25
2022-11-19T22:58:58.954Z,30.50
2022-11-19T23:01:29.817Z,29.90
2022-11-19T23:04:00.316Z,31.27
2022-11-19T23:06:29.530Z,34.40
2022-11-19T23:08:57.868Z,36.53
2022-11-19T23:11:26.285Z,34.97
2022-11-19T23:13:54.488Z,35.78
2022-11-19T23:16:22.688Z,31.33
2022-11-19T23:18:52.814Z,28.55
2022-11-19T23:21:27.353Z,29.73
2022-11-19T23:23:56.621Z,29.40
2022-11-19T23:26:27.184Z,30.45
2022-11-19T23:28:56.301Z,29.20
2022-11-19T23:31:27.316Z,28.95
2022-11-19T23:33:58.997Z,27.65
2022-11-19T23:36:30.708Z,27.60
2022-11-19T23:38:59.438Z,26.27
2022-11-19T23:41:28.263Z,26.30
2022-11-19T23:43:57.077Z,23.20
2022-11-19T23:46:28.215Z,22.80
2022-11-19T23:48:58.119Z,27.27
2022-11-19T23:51:29.661Z,26.60
2022-11-19T23:53:58.375Z,25.75
2022-11-19T23:56:29.090Z,23.50
2022-11-19T23:58:58.070Z,24.98
